createdAt,value
2017-10-02T00:00:49.201Z,994.84
2017-10-02T00:01:49.182Z,994.83
2017-10-02T00:02:49.157Z,994.79
2017-10-02T00:04:10.150Z,994.78
2017-10-02T00:04:49.131Z,994.80
2017-10-02T00:05:49.087Z,994.71
2017-10-02T00:06:49.074Z,994.68
2017-10-02T00:07:49.065Z,994.67
2017-10-02T00:08:49.021Z,994.63
2017-10-02T00:10:10.013Z,994.60
2017-10-02T00:10:49.008Z,994.58
2017-10-02T00:11:48.978Z,994.60
2017-10-02T00:12:48.954Z,994.59
2017-10-02T00:13:48.937Z,994.52
2017-10-02T00:14:48.899Z,994.54
2017-10-02T00:16:09.902Z,994.49
2017-10-02T00:16:48.844Z,994.49
2017-10-02T00:17:48.820Z,994.49
2017-10-02T00:18:48.828Z,994.48
2017-10-02T00:19:48.803Z,994.45
2017-10-02T00:20:48.795Z,994.38
2017-10-02T00:22:09.745Z,994.40
2017-10-02T00:22:48.726Z,994.38
2017-10-02T00:23:48.715Z,994.37
2017-10-02T00:24:48.694Z,994.38
2017-10-02T00:25:48.692Z,994.37
2017-10-02T00:26:48.634Z,994.32
2017-10-02T00:28:09.618Z,994.34
2017-10-02T00:28:48.649Z,994.33
2017-10-02T00:29:48.594Z,994.32
2017-10-02T00:30:48.561Z,994.33
2017-10-02T00:31:48.545Z,994.34
2017-10-02T00:32:48.497Z,994.34
2017-10-02T00:34:09.511Z,994.39
2017-10-02T00:34:48.478Z,994.36
2017-10-02T00:35:48.444Z,994.35
2017-10-02T00:36:48.448Z,994.33
2017-10-02T00:37:48.407Z,994.34
2017-10-02T00:38:48.400Z,994.36
2017-10-02T00:40:09.406Z,994.32
2017-10-02T00:40:48.347Z,994.33
2017-10-02T00:41:48.341Z,994.28
2017-10-02T00:42:48.310Z,994.23
2017-10-02T00:43:48.323Z,994.21
2017-10-02T00:44:48.291Z,994.14
2017-10-02T00:46:09.254Z,994.10
2017-10-02T00:46:48.230Z,994.07
2017-10-02T00:47:48.216Z,994.06
2017-10-02T00:48:48.178Z,994.04
2017-10-02T00:49:48.161Z,994.02
2017-10-02T00:50:48.132Z,994.06
2017-10-02T00:52:09.120Z,994.08
2017-10-02T00:52:48.080Z,994.10
2017-10-02T00:53:48.129Z,994.15
2017-10-02T00:54:48.068Z,994.12
2017-10-02T00:55:48.046Z,994.16
2017-10-02T00:56:48.019Z,994.13
2017-10-02T00:58:08.990Z,994.17
2017-10-02T00:58:47.970Z,994.16
2017-10-02T00:59:47.966Z,994.16
2017-10-02T01:00:47.920Z,994.12
2017-10-02T01:01:47.905Z,994.11
2017-10-02T01:02:47.874Z,994.10
2017-10-02T01:04:08.859Z,994.03
2017-10-02T01:04:47.866Z,993.97
2017-10-02T01:05:47.833Z,993.97
2017-10-02T01:06:47.801Z,993.92
2017-10-02T01:07:47.792Z,993.88
2017-10-02T01:08:47.788Z,993.83
2017-10-02T01:10:08.739Z,993.87
2017-10-02T01:10:47.697Z,993.89
2017-10-02T01:11:47.685Z,993.88
2017-10-02T01:12:47.691Z,993.91
2017-10-02T01:13:47.657Z,993.86
2017-10-02T01:14:47.648Z,993.92
2017-10-02T01:16:08.618Z,993.91
2017-10-02T01:16:47.603Z,993.93
2017-10-02T01:17:47.593Z,993.96
2017-10-02T01:18:47.534Z,993.96
2017-10-02T01:19:47.543Z,993.88
2017-10-02T01:20:47.511Z,993.97
2017-10-02T01:22:08.485Z,994.02
2017-10-02T01:22:47.460Z,994.03
2017-10-02T01:23:47.463Z,994.00
2017-10-02T01:24:47.449Z,994.01
2017-10-02T01:25:47.406Z,994.00
2017-10-02T01:26:47.408Z,994.01
2017-10-02T01:28:08.390Z,994.00
2017-10-02T01:28:47.371Z,994.03
2017-10-02T01:29:47.312Z,994.00
2017-10-02T01:30:47.285Z,994.00
2017-10-02T01:31:47.277Z,993.96
2017-10-02T01:32:47.243Z,993.97
2017-10-02T01:34:08.232Z,993.99
2017-10-02T01:34:47.192Z,993.96
2017-10-02T01:35:47.202Z,993.88
2017-10-02T01:36:47.157Z,993.89
2017-10-02T01:37:47.156Z,993.84
2017-10-02T01:38:47.138Z,993.76
2017-10-02T01:40:08.083Z,993.78
2017-10-02T01:40:47.057Z,993.78
2017-10-02T01:41:47.071Z,993.77
2017-10-02T01:42:47.050Z,993.74
2017-10-02T01:43:47.007Z,993.70
2017-10-02T01:44:47.008Z,993.70
2017-10-02T01:46:07.963Z,993.66
2017-10-02T01:46:46.970Z,993.67
2017-10-02T01:47:46.940Z,993.66
2017-10-02T01:48:46.906Z,993.64
2017-10-02T01:49:46.871Z,993.63
2017-10-02T01:50:46.865Z,993.63
2017-10-02T01:52:07.915Z,993.60
2017-10-02T01:52:46.802Z,993.56
2017-10-02T01:53:46.796Z,993.56
2017-10-02T01:54:46.760Z,993.60
2017-10-02T01:55:46.752Z,993.59
2017-10-02T01:56:46.732Z,993.60
2017-10-02T01:58:07.712Z,993.63
2017-10-02T01:58:46.690Z,993.64
2017-10-02T01:59:46.657Z,993.61
2017-10-02T02:00:46.647Z,993.61
2017-10-02T02:01:46.617Z,993.62
2017-10-02T02:02:46.606Z,993.56
2017-10-02T02:04:07.572Z,993.57
2017-10-02T02:04:46.557Z,993.57
2017-10-02T02:05:46.567Z,993.62
2017-10-02T02:06:46.528Z,993.64
2017-10-02T02:07:46.506Z,993.65
2017-10-02T02:08:46.471Z,993.60
2017-10-02T02:10:07.453Z,993.63
2017-10-02T02:10:46.430Z,993.63
2017-10-02T02:11:46.415Z,993.61
2017-10-02T02:12:46.386Z,993.64
2017-10-02T02:13:46.361Z,993.58
2017-10-02T02:14:46.346Z,993.57
2017-10-02T02:16:07.325Z,993.55
2017-10-02T02:16:46.358Z,993.48
2017-10-02T02:17:46.290Z,993.44
2017-10-02T02:18:46.271Z,993.41
2017-10-02T02:19:46.224Z,993.32
2017-10-02T02:20:46.223Z,993.28
2017-10-02T02:22:07.217Z,993.24
2017-10-02T02:22:46.197Z,993.20
2017-10-02T02:23:46.151Z,993.15
2017-10-02T02:24:46.142Z,993.12
2017-10-02T02:25:46.112Z,993.11
2017-10-02T02:26:46.087Z,993.08
2017-10-02T02:28:07.090Z,993.09
2017-10-02T02:28:46.073Z,993.08
2017-10-02T02:29:46.032Z,993.04
2017-10-02T02:30:46.020Z,992.99
2017-10-02T02:31:45.985Z,992.92
2017-10-02T02:32:45.989Z,992.97
2017-10-02T02:34:06.938Z,992.88
2017-10-02T02:34:46.011Z,992.95
2017-10-02T02:35:45.899Z,992.99
2017-10-02T02:36:45.872Z,992.98
2017-10-02T02:37:45.869Z,992.91
2017-10-02T02:38:45.873Z,992.94
2017-10-02T02:40:06.870Z,992.88
2017-10-02T02:40:45.815Z,992.90
2017-10-02T02:41:45.793Z,992.91
2017-10-02T02:42:45.786Z,992.89
2017-10-02T02:43:45.741Z,992.88
2017-10-02T02:44:45.720Z,992.91
2017-10-02T02:46:06.682Z,992.89
2017-10-02T02:46:45.675Z,992.85
2017-10-02T02:47:45.644Z,992.86
2017-10-02T02:48:45.621Z,992.86
2017-10-02T02:49:45.605Z,992.87
2017-10-02T02:50:45.582Z,992.89
2017-10-02T02:52:06.556Z,992.89
2017-10-02T02:52:45.562Z,992.90
2017-10-02T02:53:45.520Z,992.94
2017-10-02T02:54:45.506Z,992.98
2017-10-02T02:55:45.477Z,992.96
2017-10-02T02:56:45.457Z,993.00
2017-10-02T02:58:06.443Z,993.02
2017-10-02T02:58:45.416Z,993.03
2017-10-02T02:59:45.389Z,993.03
2017-10-02T03:00:45.381Z,993.00
2017-10-02T03:01:45.406Z,992.99
2017-10-02T03:02:45.347Z,992.98
2017-10-02T03:04:06.314Z,992.97
2017-10-02T03:04:45.291Z,992.97
2017-10-02T03:05:45.262Z,993.00
2017-10-02T03:06:45.274Z,993.00
2017-10-02T03:07:45.227Z,992.99
2017-10-02T03:08:45.231Z,993.01
2017-10-02T03:10:06.198Z,992.99
2017-10-02T03:10:45.255Z,993.00
2017-10-02T03:11:45.157Z,993.00
2017-10-02T03:12:45.108Z,993.01
2017-10-02T03:13:45.118Z,993.01
2017-10-02T03:14:45.075Z,992.99
2017-10-02T03:16:06.123Z,993.00
2017-10-02T03:16:45.046Z,993.00
2017-10-02T03:17:45.026Z,992.99
2017-10-02T03:18:44.991Z,993.00
2017-10-02T03:19:44.975Z,992.97
2017-10-02T03:20:44.962Z,992.97
2017-10-02T03:22:05.933Z,992.98
2017-10-02T03:22:44.911Z,993.05
2017-10-02T03:23:44.884Z,993.09
2017-10-02T03:24:44.886Z,993.06
2017-10-02T03:25:44.850Z,993.11
2017-10-02T03:26:44.820Z,993.10
2017-10-02T03:28:05.806Z,993.08
2017-10-02T03:28:44.782Z,993.05
2017-10-02T03:29:44.797Z,993.03
2017-10-02T03:30:44.747Z,993.05
2017-10-02T03:31:44.727Z,993.02
2017-10-02T03:32:44.757Z,992.99
2017-10-02T03:34:05.747Z,993.01
2017-10-02T03:34:44.672Z,992.97
2017-10-02T03:35:44.721Z,992.97
2017-10-02T03:36:44.615Z,992.95
2017-10-02T03:37:44.610Z,992.95
2017-10-02T03:38:44.580Z,992.93
2017-10-02T03:40:05.559Z,992.91
2017-10-02T03:40:44.565Z,992.91
2017-10-02T03:41:44.527Z,992.88
2017-10-02T03:42:44.505Z,992.85
2017-10-02T03:43:44.546Z,992.84
2017-10-02T03:44:44.443Z,992.82
2017-10-02T03:46:05.437Z,992.76
2017-10-02T03:46:44.424Z,992.72
2017-10-02T03:47:44.404Z,992.70
2017-10-02T03:48:44.381Z,992.68
2017-10-02T03:49:44.368Z,992.67
2017-10-02T03:50:44.342Z,992.67
2017-10-02T03:52:05.395Z,992.65
2017-10-02T03:52:44.292Z,992.60
2017-10-02T03:53:44.272Z,992.64
2017-10-02T03:54:44.252Z,992.62
2017-10-02T03:55:44.280Z,992.59
2017-10-02T03:56:44.220Z,992.55
2017-10-02T03:58:05.194Z,992.54
2017-10-02T03:58:44.189Z,992.54
2017-10-02T03:59:44.147Z,992.55
2017-10-02T04:00:44.133Z,992.54
2017-10-02T04:01:44.110Z,992.61
2017-10-02T04:02:44.108Z,992.52
2017-10-02T04:04:05.073Z,992.49
2017-10-02T04:04:44.049Z,992.48
2017-10-02T04:05:44.037Z,992.42
2017-10-02T04:06:43.990Z,992.45
2017-10-02T04:07:43.983Z,992.44
2017-10-02T04:08:43.976Z,992.42
2017-10-02T04:10:04.951Z,992.42
2017-10-02T04:10:43.968Z,992.38
2017-10-02T04:11:43.903Z,992.37
2017-10-02T04:12:43.881Z,992.38
2017-10-02T04:13:43.863Z,992.32
2017-10-02T04:14:43.838Z,992.35
2017-10-02T04:16:04.826Z,992.31
2017-10-02T04:16:43.793Z,992.32
2017-10-02T04:17:43.784Z,992.35
2017-10-02T04:18:43.784Z,992.29
2017-10-02T04:19:43.781Z,992.23
2017-10-02T04:20:43.730Z,992.26
2017-10-02T04:22:04.698Z,992.22
2017-10-02T04:22:43.679Z,992.21
2017-10-02T04:23:43.692Z,992.19
2017-10-02T04:24:43.634Z,992.17
2017-10-02T04:25:43.667Z,992.14
2017-10-02T04:26:43.612Z,992.15
2017-10-02T04:28:04.621Z,992.15
2017-10-02T04:28:43.698Z,992.13
2017-10-02T04:29:43.535Z,992.13
2017-10-02T04:30:43.549Z,992.11
2017-10-02T04:31:43.483Z,992.14
2017-10-02T04:32:43.491Z,992.14
2017-10-02T04:34:04.481Z,992.12
2017-10-02T04:34:43.426Z,992.16
2017-10-02T04:35:43.422Z,992.15
2017-10-02T04:36:43.387Z,992.11
2017-10-02T04:37:43.364Z,992.13
2017-10-02T04:38:43.346Z,992.10
2017-10-02T04:40:04.329Z,992.09
2017-10-02T04:40:43.353Z,992.06
2017-10-02T04:41:43.283Z,992.09
2017-10-02T04:42:43.271Z,992.06
2017-10-02T04:43:43.245Z,992.03
2017-10-02T04:44:43.259Z,992.04
2017-10-02T04:46:04.211Z,992.03
2017-10-02T04:46:43.176Z,991.99
2017-10-02T04:47:43.186Z,992.04
2017-10-02T04:48:43.147Z,992.03
2017-10-02T04:49:43.130Z,992.05
2017-10-02T04:50:43.115Z,992.07
2017-10-02T04:52:04.083Z,992.11
2017-10-02T04:52:43.053Z,992.09
2017-10-02T04:53:43.830Z,992.08
2017-10-02T04:54:43.031Z,992.06
2017-10-02T04:55:43.037Z,992.09
2017-10-02T04:56:42.985Z,992.10
2017-10-02T04:58:03.985Z,992.14
2017-10-02T04:58:42.938Z,992.11
2017-10-02T04:59:42.921Z,992.14
2017-10-02T05:00:42.898Z,992.14
2017-10-02T05:01:42.909Z,992.15
2017-10-02T05:02:42.852Z,992.15
2017-10-02T05:04:03.842Z,992.11
2017-10-02T05:04:42.811Z,992.07
2017-10-02T05:05:42.797Z,992.07
2017-10-02T05:06:42.780Z,992.02
2017-10-02T05:07:42.795Z,992.00
2017-10-02T05:08:42.747Z,991.95
2017-10-02T05:10:03.750Z,991.98
2017-10-02T05:10:42.765Z,992.01
2017-10-02T05:11:42.773Z,992.05
2017-10-02T05:12:42.771Z,992.04
2017-10-02T05:13:42.634Z,992.03
2017-10-02T05:14:42.644Z,992.05
2017-10-02T05:16:03.624Z,992.00
2017-10-02T05:16:42.568Z,992.01
2017-10-02T05:17:42.626Z,992.02
2017-10-02T05:18:42.569Z,992.03
2017-10-02T05:19:42.526Z,992.00
2017-10-02T05:20:42.548Z,991.99
2017-10-02T05:22:03.480Z,991.98
2017-10-02T05:22:42.464Z,992.03
2017-10-02T05:23:42.432Z,992.07
2017-10-02T05:24:42.437Z,992.03
2017-10-02T05:25:42.386Z,992.04
2017-10-02T05:26:42.368Z,992.10
2017-10-02T05:28:03.378Z,992.09
2017-10-02T05:28:42.325Z,992.06
2017-10-02T05:29:42.303Z,992.04
2017-10-02T05:30:42.290Z,992.08
2017-10-02T05:31:42.271Z,992.05
2017-10-02T05:32:42.237Z,992.10
2017-10-02T05:34:03.236Z,992.10
2017-10-02T05:34:42.218Z,992.07
2017-10-02T05:35:42.253Z,992.07
2017-10-02T05:36:42.168Z,992.02
2017-10-02T05:37:42.165Z,992.01
2017-10-02T05:38:42.179Z,992.02
2017-10-02T05:40:03.109Z,991.99
2017-10-02T05:40:42.091Z,991.98
2017-10-02T05:41:42.090Z,991.88
2017-10-02T05:42:42.051Z,991.86
2017-10-02T05:43:42.047Z,991.86
2017-10-02T05:44:42.008Z,991.83
2017-10-02T05:46:02.989Z,991.81
2017-10-02T05:46:41.981Z,991.82
2017-10-02T05:47:41.964Z,991.79
2017-10-02T05:48:41.937Z,991.78
2017-10-02T05:49:41.912Z,991.78
2017-10-02T05:50:41.890Z,991.71
2017-10-02T05:52:02.879Z,991.73
2017-10-02T05:52:41.866Z,991.72
2017-10-02T05:53:41.839Z,991.72
2017-10-02T05:54:41.817Z,991.72
2017-10-02T05:55:41.796Z,991.74
2017-10-02T05:56:41.769Z,991.75
2017-10-02T05:58:02.757Z,991.76
2017-10-02T05:58:41.759Z,991.74
2017-10-02T05:59:41.707Z,991.69
2017-10-02T06:00:41.692Z,991.67
2017-10-02T06:01:41.674Z,991.67
2017-10-02T06:02:41.649Z,991.64
2017-10-02T06:04:02.631Z,991.67
2017-10-02T06:04:41.624Z,991.67
2017-10-02T06:05:41.587Z,991.65
2017-10-02T06:06:41.566Z,991.63
2017-10-02T06:07:41.542Z,991.62
2017-10-02T06:08:41.535Z,991.58
2017-10-02T06:10:02.515Z,991.58
2017-10-02T06:10:41.479Z,991.57
2017-10-02T06:11:41.467Z,991.55
2017-10-02T06:12:41.450Z,991.53
2017-10-02T06:13:41.419Z,991.58
2017-10-02T06:14:41.408Z,991.54
2017-10-02T06:16:02.390Z,991.54
2017-10-02T06:16:41.362Z,991.57
2017-10-02T06:17:41.354Z,991.56
2017-10-02T06:18:41.342Z,991.58
2017-10-02T06:19:41.316Z,991.56
2017-10-02T06:20:41.287Z,991.60
2017-10-02T06:22:02.287Z,991.62
2017-10-02T06:22:41.246Z,991.60
2017-10-02T06:23:41.229Z,991.64
2017-10-02T06:24:41.209Z,991.67
2017-10-02T06:25:41.195Z,991.67
2017-10-02T06:26:41.169Z,991.68
2017-10-02T06:28:02.162Z,991.66
2017-10-02T06:28:41.139Z,991.68
2017-10-02T06:29:41.120Z,991.70
2017-10-02T06:30:41.090Z,991.69
2017-10-02T06:31:41.077Z,991.65
2017-10-02T06:32:41.105Z,991.65
2017-10-02T06:34:02.085Z,991.65
2017-10-02T06:34:41.032Z,991.60
2017-10-02T06:35:41.023Z,991.60
2017-10-02T06:36:40.973Z,991.62
2017-10-02T06:37:40.953Z,991.57
2017-10-02T06:38:40.937Z,991.58
2017-10-02T06:40:01.945Z,991.62
2017-10-02T06:40:40.896Z,991.61
2017-10-02T06:41:40.873Z,991.67
2017-10-02T06:42:40.876Z,991.63
2017-10-02T06:43:40.839Z,991.62
2017-10-02T06:44:40.820Z,991.66
2017-10-02T06:46:01.896Z,991.60
2017-10-02T06:46:40.837Z,991.59
2017-10-02T06:47:40.781Z,991.56
2017-10-02T06:48:40.755Z,991.59
2017-10-02T06:49:40.728Z,991.54
2017-10-02T06:50:40.710Z,991.50
2017-10-02T06:52:01.693Z,991.53
2017-10-02T06:52:40.678Z,991.47
2017-10-02T06:53:40.679Z,991.53
2017-10-02T06:54:40.629Z,991.52
2017-10-02T06:55:40.609Z,991.53
2017-10-02T06:56:40.626Z,991.52
2017-10-02T06:58:01.572Z,991.51
2017-10-02T06:58:40.547Z,991.51
2017-10-02T06:59:40.540Z,991.50
2017-10-02T07:00:40.544Z,991.53
2017-10-02T07:01:40.493Z,991.55
2017-10-02T07:02:40.479Z,991.48
2017-10-02T07:04:01.459Z,991.50
2017-10-02T07:04:40.437Z,991.49
2017-10-02T07:05:40.416Z,991.48
2017-10-02T07:06:40.401Z,991.46
2017-10-02T07:07:40.386Z,991.41
2017-10-02T07:08:40.366Z,991.39
2017-10-02T07:10:01.392Z,991.33
2017-10-02T07:10:40.332Z,991.36
2017-10-02T07:11:40.307Z,991.34
2017-10-02T07:12:40.321Z,991.35
2017-10-02T07:13:40.288Z,991.33
2017-10-02T07:14:40.248Z,991.35
2017-10-02T07:16:01.279Z,991.32
2017-10-02T07:16:40.224Z,991.29
2017-10-02T07:17:40.197Z,991.27
2017-10-02T07:18:40.187Z,991.22
2017-10-02T07:19:40.155Z,991.23
2017-10-02T07:20:40.151Z,991.22
2017-10-02T07:22:01.114Z,991.24
2017-10-02T07:22:40.098Z,991.26
2017-10-02T07:23:40.078Z,991.24
2017-10-02T07:24:40.070Z,991.23
2017-10-02T07:25:40.044Z,991.23
2017-10-02T07:26:40.054Z,991.22
2017-10-02T07:28:01.012Z,991.20
2017-10-02T07:28:39.978Z,991.23
2017-10-02T07:29:39.982Z,991.20
2017-10-02T07:30:39.946Z,991.23
2017-10-02T07:31:39.928Z,991.26
2017-10-02T07:32:39.914Z,991.30
2017-10-02T07:34:00.917Z,991.25
2017-10-02T07:34:39.877Z,991.29
2017-10-02T07:35:39.858Z,991.24
2017-10-02T07:36:39.849Z,991.22
2017-10-02T07:37:39.830Z,991.23
2017-10-02T07:38:39.800Z,991.23
2017-10-02T07:40:00.793Z,991.16
2017-10-02T07:40:39.767Z,991.17
2017-10-02T07:41:39.797Z,991.16
2017-10-02T07:42:39.737Z,991.11
2017-10-02T07:43:39.710Z,991.11
2017-10-02T07:44:39.676Z,991.15
2017-10-02T07:46:00.686Z,991.12
2017-10-02T07:46:39.652Z,991.10
2017-10-02T07:47:39.631Z,991.12
2017-10-02T07:48:39.615Z,991.05
2017-10-02T07:49:39.589Z,991.05
2017-10-02T07:50:39.582Z,991.06
2017-10-02T07:52:00.559Z,991.05
2017-10-02T07:52:39.553Z,991.07
2017-10-02T07:53:39.515Z,991.07
2017-10-02T07:54:39.500Z,991.05
2017-10-02T07:55:39.494Z,991.02
2017-10-02T07:56:39.463Z,990.98
2017-10-02T07:58:00.464Z,990.98
2017-10-02T07:58:39.428Z,990.96
2017-10-02T07:59:39.405Z,990.97
2017-10-02T08:00:39.391Z,990.97
2017-10-02T08:01:39.403Z,990.98
2017-10-02T08:02:39.362Z,990.95
2017-10-02T08:04:00.364Z,990.97
2017-10-02T08:04:39.338Z,990.94
2017-10-02T08:05:39.302Z,990.93
2017-10-02T08:06:39.289Z,990.96
2017-10-02T08:07:39.260Z,991.01
2017-10-02T08:08:39.229Z,990.98
2017-10-02T08:10:00.226Z,990.98
2017-10-02T08:10:39.207Z,990.97
2017-10-02T08:11:39.187Z,990.94
2017-10-02T08:12:39.169Z,990.95
2017-10-02T08:13:39.146Z,990.96
2017-10-02T08:14:39.235Z,990.99
2017-10-02T08:16:00.151Z,990.93
2017-10-02T08:16:39.343Z,990.91
2017-10-02T08:17:39.151Z,990.88
2017-10-02T08:18:39.082Z,990.82
2017-10-02T08:19:39.035Z,990.85
2017-10-02T08:20:39.027Z,990.89
2017-10-02T08:22:00.001Z,990.90
2017-10-02T08:22:38.971Z,990.91
2017-10-02T08:23:38.981Z,990.87
2017-10-02T08:24:38.980Z,990.87
2017-10-02T08:25:38.923Z,990.91
2017-10-02T08:26:38.922Z,990.94
2017-10-02T08:27:59.891Z,990.90
2017-10-02T08:28:38.911Z,990.93
2017-10-02T08:29:38.879Z,990.94
2017-10-02T08:30:38.831Z,990.98
2017-10-02T08:31:38.821Z,990.90
2017-10-02T08:32:38.819Z,990.89
2017-10-02T08:33:59.796Z,990.95
2017-10-02T08:34:38.762Z,990.88
2017-10-02T08:35:38.752Z,990.93
2017-10-02T08:36:38.756Z,990.94
2017-10-02T08:37:38.774Z,990.95
2017-10-02T08:38:38.698Z,991.02
2017-10-02T08:39:59.682Z,990.93
2017-10-02T08:40:38.705Z,991.00
2017-10-02T08:41:38.633Z,990.96
2017-10-02T08:42:38.635Z,990.98
2017-10-02T08:43:38.593Z,990.97
2017-10-02T08:44:38.581Z,990.93
2017-10-02T08:45:59.567Z,990.92
2017-10-02T08:46:38.536Z,990.93
2017-10-02T08:47:38.537Z,990.94
2017-10-02T08:48:38.521Z,990.86
2017-10-02T08:49:38.489Z,990.94
2017-10-02T08:50:38.479Z,990.93
2017-10-02T08:51:59.464Z,990.94
2017-10-02T08:52:38.449Z,990.86
2017-10-02T08:53:38.424Z,990.91
2017-10-02T08:54:38.444Z,990.90
2017-10-02T08:55:38.386Z,990.89
2017-10-02T08:56:38.364Z,990.86
2017-10-02T08:57:59.352Z,990.87
2017-10-02T08:58:38.329Z,990.86
2017-10-02T08:59:38.313Z,990.90
2017-10-02T09:00:38.295Z,990.92
2017-10-02T09:01:38.279Z,990.91
2017-10-02T09:02:40.824Z,990.93
2017-10-02T09:04:01.364Z,990.93
2017-10-02T09:04:38.216Z,990.96
2017-10-02T09:05:38.286Z,990.94
2017-10-02T09:06:38.181Z,990.91
2017-10-02T09:07:38.167Z,990.92
2017-10-02T09:08:38.205Z,990.91
2017-10-02T09:09:59.123Z,990.84
2017-10-02T09:10:38.098Z,990.84
2017-10-02T09:11:38.122Z,990.83
2017-10-02T09:12:38.074Z,990.84
2017-10-02T09:13:38.065Z,990.82
2017-10-02T09:14:38.055Z,990.81
2017-10-02T09:15:59.029Z,990.79
2017-10-02T09:16:37.999Z,990.73
2017-10-02T09:17:37.983Z,990.75
2017-10-02T09:18:37.956Z,990.69
2017-10-02T09:19:37.940Z,990.71
2017-10-02T09:20:37.928Z,990.64
2017-10-02T09:21:58.909Z,990.70
2017-10-02T09:22:37.933Z,990.67
2017-10-02T09:23:37.868Z,990.70
2017-10-02T09:24:37.849Z,990.69
2017-10-02T09:25:37.832Z,990.77
2017-10-02T09:26:37.816Z,990.81
2017-10-02T09:27:58.801Z,990.73
2017-10-02T09:28:37.771Z,990.73
2017-10-02T09:29:37.760Z,990.78
2017-10-02T09:30:37.739Z,990.78
2017-10-02T09:31:37.721Z,990.82
2017-10-02T09:32:37.700Z,990.80
2017-10-02T09:33:58.680Z,990.81
2017-10-02T09:34:37.677Z,990.79
2017-10-02T09:35:37.648Z,990.80
2017-10-02T09:36:37.640Z,990.84
2017-10-02T09:37:37.613Z,990.76
2017-10-02T09:38:37.640Z,990.79
2017-10-02T09:39:58.583Z,990.78
2017-10-02T09:40:37.554Z,990.77
2017-10-02T09:41:37.536Z,990.73
2017-10-02T09:42:37.562Z,990.71
2017-10-02T09:43:37.506Z,990.70
2017-10-02T09:44:37.477Z,990.71
2017-10-02T09:45:58.464Z,990.66
2017-10-02T09:46:37.430Z,990.65
2017-10-02T09:47:37.448Z,990.71
2017-10-02T09:48:37.420Z,990.69
2017-10-02T09:49:38.813Z,990.69
2017-10-02T09:50:37.392Z,990.70
2017-10-02T09:51:58.350Z,990.68
2017-10-02T09:52:37.328Z,990.63
2017-10-02T09:53:37.424Z,990.67
2017-10-02T09:54:37.343Z,990.66
2017-10-02T09:55:37.291Z,990.64
2017-10-02T09:56:37.276Z,990.70
2017-10-02T09:57:58.245Z,990.68
2017-10-02T09:58:37.235Z,990.64
2017-10-02T09:59:37.207Z,990.62
2017-10-02T10:00:37.181Z,990.71
2017-10-02T10:01:37.163Z,990.66
2017-10-02T10:02:37.138Z,990.66
2017-10-02T10:03:58.121Z,990.65
2017-10-02T10:04:37.105Z,990.61
2017-10-02T10:05:37.105Z,990.65
2017-10-02T10:06:37.086Z,990.66
2017-10-02T10:07:37.150Z,990.65
2017-10-02T10:08:37.042Z,990.69
2017-10-02T10:09:58.029Z,990.70
2017-10-02T10:10:37.018Z,990.68
2017-10-02T10:11:36.983Z,990.70
2017-10-02T10:12:37.018Z,990.69
2017-10-02T10:13:36.954Z,990.69
2017-10-02T10:14:36.933Z,990.69
2017-10-02T10:15:57.914Z,990.74
2017-10-02T10:16:36.888Z,990.71
2017-10-02T10:17:36.937Z,990.71
2017-10-02T10:18:36.870Z,990.75
2017-10-02T10:19:36.834Z,990.75
2017-10-02T10:20:36.811Z,990.72
2017-10-02T10:21:57.831Z,990.74
2017-10-02T10:22:36.806Z,990.74
2017-10-02T10:23:36.813Z,990.72
2017-10-02T10:24:36.784Z,990.69
2017-10-02T10:25:36.782Z,990.74
2017-10-02T10:26:36.744Z,990.71
2017-10-02T10:27:57.727Z,990.69
2017-10-02T10:28:36.679Z,990.63
2017-10-02T10:29:36.687Z,990.66
2017-10-02T10:30:36.644Z,990.68
2017-10-02T10:31:36.627Z,990.70
2017-10-02T10:32:36.627Z,990.73
2017-10-02T10:33:57.584Z,990.75
2017-10-02T10:34:36.563Z,990.68
2017-10-02T10:35:36.647Z,990.65
2017-10-02T10:36:36.568Z,990.65
2017-10-02T10:37:36.514Z,990.67
2017-10-02T10:38:36.492Z,990.71
2017-10-02T10:39:57.457Z,990.73
2017-10-02T10:40:36.521Z,990.69
2017-10-02T10:41:36.472Z,990.71
2017-10-02T10:42:36.432Z,990.76
2017-10-02T10:43:36.412Z,990.71
2017-10-02T10:44:36.390Z,990.73
2017-10-02T10:45:57.370Z,990.68
2017-10-02T10:46:36.366Z,990.69
2017-10-02T10:47:36.329Z,990.69
2017-10-02T10:48:36.355Z,990.66
2017-10-02T10:49:36.289Z,990.66
2017-10-02T10:50:36.287Z,990.64
2017-10-02T10:51:57.242Z,990.62
2017-10-02T10:52:36.240Z,990.61
2017-10-02T10:53:36.208Z,990.63
2017-10-02T10:54:36.184Z,990.64
2017-10-02T10:55:36.216Z,990.70
2017-10-02T10:56:36.163Z,990.68
2017-10-02T10:57:57.135Z,990.69
2017-10-02T10:58:36.122Z,990.65
2017-10-02T10:59:36.175Z,990.62
2017-10-02T11:00:36.081Z,990.59
2017-10-02T11:01:36.067Z,990.59
2017-10-02T11:02:36.050Z,990.58
2017-10-02T11:03:57.048Z,990.53
2017-10-02T11:04:36.049Z,990.51
2017-10-02T11:05:36.001Z,990.51
2017-10-02T11:06:35.972Z,990.57
2017-10-02T11:07:35.960Z,990.54
2017-10-02T11:08:36.038Z,990.47
2017-10-02T11:09:56.909Z,990.47
2017-10-02T11:10:35.927Z,990.47
2017-10-02T11:11:35.907Z,990.53
2017-10-02T11:12:35.872Z,990.49
2017-10-02T11:13:35.844Z,990.51
2017-10-02T11:14:35.829Z,990.52
2017-10-02T11:15:56.805Z,990.47
2017-10-02T11:16:35.808Z,990.45
2017-10-02T11:17:35.763Z,990.43
2017-10-02T11:18:35.752Z,990.51
2017-10-02T11:19:35.739Z,990.39
2017-10-02T11:20:35.716Z,990.34
2017-10-02T11:21:56.764Z,990.37
2017-10-02T11:22:35.681Z,990.37
2017-10-02T11:23:35.710Z,990.34
2017-10-02T11:24:35.643Z,990.26
2017-10-02T11:25:35.628Z,990.28
2017-10-02T11:26:35.633Z,990.24
2017-10-02T11:27:56.591Z,990.25
2017-10-02T11:28:35.572Z,990.27
2017-10-02T11:29:35.579Z,990.27
2017-10-02T11:30:35.590Z,990.19
2017-10-02T11:31:35.519Z,990.13
2017-10-02T11:32:35.498Z,990.06
2017-10-02T11:33:56.479Z,989.99
2017-10-02T11:34:35.461Z,989.99
2017-10-02T11:35:35.440Z,990.03
2017-10-02T11:36:35.452Z,989.98
2017-10-02T11:37:35.410Z,989.92
2017-10-02T11:38:35.381Z,989.85
2017-10-02T11:39:56.378Z,989.82
2017-10-02T11:40:35.352Z,989.77
2017-10-02T11:41:35.344Z,989.81
2017-10-02T11:42:35.331Z,989.70
2017-10-02T11:43:35.300Z,989.69
2017-10-02T11:44:35.274Z,989.66
2017-10-02T11:45:56.282Z,989.64
2017-10-02T11:46:35.273Z,989.58
2017-10-02T11:47:35.225Z,989.65
2017-10-02T11:48:35.220Z,989.49
2017-10-02T11:49:35.182Z,989.52
2017-10-02T11:50:35.194Z,989.41
2017-10-02T11:51:56.145Z,989.31
2017-10-02T11:52:35.165Z,989.35
2017-10-02T11:53:35.112Z,989.39
2017-10-02T11:54:35.120Z,989.42
2017-10-02T11:55:35.067Z,989.34
2017-10-02T11:56:35.099Z,989.37
2017-10-02T11:57:56.057Z,989.44
2017-10-02T11:58:35.032Z,989.47
2017-10-02T11:59:34.995Z,989.49
2017-10-02T12:00:35.030Z,989.51
2017-10-02T12:01:34.962Z,989.51
2017-10-02T12:02:34.956Z,989.53
2017-10-02T12:03:56.013Z,989.56
2017-10-02T12:04:34.908Z,989.54
2017-10-02T12:05:34.898Z,989.63
2017-10-02T12:06:34.896Z,989.64
2017-10-02T12:07:34.867Z,989.62
2017-10-02T12:08:34.835Z,989.59
2017-10-02T12:09:55.815Z,989.56
2017-10-02T12:10:34.808Z,989.52
2017-10-02T12:11:34.793Z,989.39
2017-10-02T12:12:34.779Z,989.35
2017-10-02T12:13:34.751Z,989.37
2017-10-02T12:14:34.735Z,989.38
2017-10-02T12:15:55.713Z,989.31
2017-10-02T12:16:34.694Z,989.35
2017-10-02T12:17:34.673Z,989.33
2017-10-02T12:18:34.655Z,989.35
2017-10-02T12:19:34.633Z,989.40
2017-10-02T12:20:34.667Z,989.39
2017-10-02T12:21:55.595Z,989.49
2017-10-02T12:22:34.591Z,989.51
2017-10-02T12:23:34.552Z,989.52
2017-10-02T12:24:34.545Z,989.54
2017-10-02T12:25:34.521Z,989.51
2017-10-02T12:26:34.526Z,989.56
2017-10-02T12:27:55.499Z,989.57
2017-10-02T12:28:34.469Z,989.62